Time;durP1;ratioP1;P1;durP2;ratioP2;P2;SDS_P1;SDS_P2;PMS_P1;PMS_P2;Temp;Humidity;BMP_temperature;BMP_pressure;BME280_temperature;BME280_humidity;BME280_pressure;Samples;Min_cycle;Max_cycle;Signal;HPM_P1;HPM_P2
2022/01/29 13:54:42;;;;;;;15.02;5.03;;;;;;;7.95;50.18;101389.78;5603095;31;132385;-57
2022/01/29 13:58:01;;;;;;;18.50;5.35;;;;;;;7.95;50.18;101389.78;5581968;31;33265;-57
2022/01/29 14:01:03;;;;;;;17.48;4.75;;;;;;;7.55;50.92;101379.13;5582152;32;34176;-57
2022/01/29 14:04:08;;;;;;;15.48;5.10;;;;;;;7.88;51.84;101367.78;5581792;32;33679;-57
2022/01/29 14:07:16;;;;;;;13.73;4.80;;;;;;;7.76;50.58;101369.66;5582632;31;33202;-57
2022/01/29 14:10:19;;;;;;;11.63;4.35;;;;;;;7.70;50.85;101363.41;5583267;31;33532;-57
2022/01/29 14:13:21;;;;;;;13.38;4.72;;;;;;;7.96;55.00;101338.00;5583406;32;34380;-58
2022/01/29 14:16:23;;;;;;;13.48;4.87;;;;;;;8.20;50.47;101332.53;5583351;31;34249;-57
2022/01/29 14:19:29;;;;;;;12.20;4.15;;;;;;;7.97;49.47;101320.94;5583512;32;33568;-57
2022/01/29 14:22:36;;;;;;;16.17;5.22;;;;;;;7.88;51.61;101325.06;5581996;32;33898;-57
2022/01/29 14:25:38;;;;;;;15.98;4.80;;;;;;;7.77;51.27;101313.34;5581633;31;33646;-57
2022/01/29 14:28:40;;;;;;;15.27;5.62;;;;;;;7.98;50.35;101305.75;5581616;31;33615;-57
2022/01/29 14:31:44;;;;;;;17.42;5.40;;;;;;;7.89;50.78;101307.16;5581565;32;33797;-57
2022/01/29 14:34:46;;;;;;;13.38;5.53;;;;;;;7.98;50.54;101305.75;5581759;31;33724;-57
2022/01/29 14:37:49;;;;;;;16.52;6.12;;;;;;;7.91;50.73;101308.56;5581516;32;34332;-59
2022/01/29 14:40:51;;;;;;;20.20;6.53;;;;;;;8.06;50.01;101304.53;5581597;32;33606;-59
2022/01/29 14:43:53;;;;;;;16.90;6.32;;;;;;;7.96;50.01;101305.16;5577798;32;33556;-59
2022/01/29 14:46:56;;;;;;;16.73;5.50;;;;;;;7.84;51.35;101297.19;5563564;32;34039;-59
2022/01/29 14:49:58;;;;;;;17.48;7.00;;;;;;;7.86;60.05;101297.78;5563169;32;33565;-59
2022/01/29 14:53:01;;;;;;;22.15;7.53;;;;;;;7.91;50.56;101294.37;5563044;32;33557;-57
2022/01/29 14:56:04;;;;;;;17.73;6.85;;;;;;;8.38;49.23;101289.62;5563131;32;33719;-57
2022/01/29 14:59:07;;;;;;;19.02;7.47;;;;;;;8.69;48.42;101282.88;5563352;32;33911;-57
2022/01/29 15:02:10;;;;;;;16.67;6.37;;;;;;;9.36;46.51;101276.50;5563345;32;34287;-57
2022/01/29 15:05:12;;;;;;;20.73;7.43;;;;;;;8.79;47.83;101270.69;5553923;32;33695;-57
2022/01/29 15:08:14;;;;;;;17.73;8.02;;;;;;;8.58;48.06;101278.44;5550278;32;33767;-57
2022/01/29 15:11:18;;;;;;;20.40;7.10;;;;;;;8.58;50.85;101274.97;5550191;32;33675;-57
2022/01/29 15:14:36;;;;;;;19.25;6.55;;;;;;;8.29;50.30;101261.66;5550322;32;33291;-57
2022/01/29 15:17:38;;;;;;;16.67;6.20;;;;;;;8.32;56.86;101253.16;5550346;32;33181;-57
2022/01/29 15:20:42;;;;;;;17.62;5.90;;;;;;;8.25;61.76;101252.50;5550128;32;34211;-57
2022/01/29 15:23:45;;;;;;;17.40;6.68;;;;;;;8.42;59.48;101252.53;5550058;32;33727;-57
2022/01/29 15:26:47;;;;;;;16.67;5.93;;;;;;;8.43;49.62;101251.47;5550164;32;34591;-57
2022/01/29 15:29:49;;;;;;;15.10;6.32;;;;;;;8.23;51.92;101249.25;5550130;32;34263;-57
2022/01/29 15:32:54;;;;;;;28.05;6.87;;;;;;;8.03;52.45;101240.91;5549847;32;33672;-57
2022/01/29 15:35:58;;;;;;;18.70;6.95;;;;;;;7.84;51.42;101245.66;5550042;32;33305;-57
2022/01/29 15:39:00;;;;;;;8.00;4.25;;;;;;;7.69;55.40;101240.87;5549960;32;33889;-57
2022/01/29 15:42:23;;;;;;;15.73;5.40;;;;;;;7.89;60.77;101235.91;5550075;32;33958;-57
2022/01/29 15:45:25;;;;;;;10.30;5.03;;;;;;;7.94;55.75;101224.47;5550047;32;33644;-57
2022/01/29 15:48:27;;;;;;;13.43;4.82;;;;;;;7.58;56.30;101220.37;5549963;32;33113;-57
2022/01/29 15:51:30;;;;;;;16.08;4.80;;;;;;;7.42;60.57;101254.00;5549704;32;33910;-57
2022/01/29 15:54:32;;;;;;;10.15;4.90;;;;;;;7.26;58.12;101247.53;5549748;32;33991;-57
2022/01/29 15:57:36;;;;;;;15.18;4.78;;;;;;;7.30;58.66;101248.69;5550105;32;34236;-57
2022/01/29 16:00:39;;;;;;;12.13;5.37;;;;;;;7.05;59.52;101239.12;5549691;32;33598;-57
2022/01/29 16:03:41;;;;;;;12.07;5.00;;;;;;;7.48;58.68;101242.34;5549707;32;33573;-57
2022/01/29 16:06:43;;;;;;;17.62;5.03;;;;;;;7.51;58.78;101233.87;5550048;32;33554;-57
2022/01/29 16:09:46;;;;;;;10.50;5.65;;;;;;;7.30;59.11;101236.16;5549857;32;33662;-57
